createdAt,value
2022-07-30T00:04:07.723Z,6.80
2022-07-30T00:09:51.797Z,5.80
2022-07-30T00:15:45.403Z,5.70
2022-07-30T00:21:11.149Z,10.50
2022-07-30T00:26:48.037Z,11.00
2022-07-30T00:32:23.069Z,12.60
2022-07-30T00:37:50.643Z,12.60
2022-07-30T00:43:20.263Z,11.60
2022-07-30T00:48:48.515Z,9.80
2022-07-30T00:54:16.508Z,9.40
2022-07-30T00:59:44.165Z,7.10
2022-07-30T01:05:12.229Z,8.00
2022-07-30T01:10:40.704Z,7.10
2022-07-30T01:16:16.699Z,6.50
2022-07-30T01:21:47.067Z,7.00
2022-07-30T01:27:11.537Z,6.90
2022-07-30T01:32:52.179Z,12.60
2022-07-30T01:38:21.989Z,10.40
2022-07-30T01:43:51.149Z,13.00
2022-07-30T01:49:16.023Z,11.20
2022-07-30T01:54:49.762Z,10.80
2022-07-30T02:00:18.024Z,11.90
2022-07-30T02:11:12.110Z,6.70
2022-07-30T02:16:46.178Z,9.30
2022-07-30T02:22:18.951Z,8.40
2022-07-30T02:27:58.497Z,11.60
2022-07-30T02:33:41.192Z,11.10
2022-07-30T02:39:17.923Z,10.50
2022-07-30T02:44:48.992Z,11.90
2022-07-30T02:50:35.601Z,9.60
2022-07-30T02:56:09.536Z,11.00
2022-07-30T03:01:42.258Z,9.40
2022-07-30T03:07:09.938Z,9.90
2022-07-30T03:12:47.675Z,9.30
2022-07-30T03:18:37.706Z,9.30
2022-07-30T03:24:09.004Z,10.20
2022-07-30T03:29:41.039Z,10.30
2022-07-30T03:35:08.658Z,9.70
2022-07-30T03:41:04.459Z,11.90
2022-07-30T03:46:28.575Z,14.90
2022-07-30T03:51:53.612Z,13.30
2022-07-30T04:02:50.065Z,13.80
2022-07-30T04:08:35.048Z,12.20
2022-07-30T04:13:57.851Z,14.40
2022-07-30T04:19:34.311Z,13.90
2022-07-30T04:25:02.960Z,13.70
2022-07-30T04:30:31.423Z,14.10
2022-07-30T04:35:56.512Z,13.90
2022-07-30T04:41:48.023Z,14.10
2022-07-30T04:47:32.003Z,13.40
2022-07-30T04:53:34.819Z,11.80
2022-07-30T04:59:03.381Z,10.00
2022-07-30T05:04:32.304Z,12.50
2022-07-30T05:09:58.443Z,13.50
2022-07-30T05:15:36.234Z,10.30
2022-07-30T05:21:00.297Z,12.60
2022-07-30T05:26:37.876Z,15.10
2022-07-30T05:32:02.560Z,8.20
2022-07-30T05:37:26.729Z,7.60
2022-07-30T05:42:48.775Z,8.80
2022-07-30T05:48:10.663Z,13.10
2022-07-30T05:53:33.547Z,7.80
2022-07-30T05:59:18.729Z,33.90
2022-07-30T06:04:59.495Z,8.10
2022-07-30T06:10:27.558Z,7.90
2022-07-30T06:15:57.027Z,10.20
2022-07-30T06:22:01.630Z,12.40
2022-07-30T06:27:39.863Z,6.20
2022-07-30T06:33:07.981Z,7.80
2022-07-30T06:38:36.521Z,6.70
2022-07-30T06:44:11.015Z,45.30
2022-07-30T06:49:54.997Z,10.30
2022-07-30T06:55:17.616Z,9.00
2022-07-30T07:00:57.773Z,7.00
2022-07-30T07:06:43.500Z,8.90
2022-07-30T07:12:08.157Z,12.40
2022-07-30T07:17:56.001Z,7.70
2022-07-30T07:23:49.217Z,7.70
2022-07-30T07:29:40.691Z,12.30
2022-07-30T07:35:29.476Z,5.60
2022-07-30T07:40:51.789Z,10.00
2022-07-30T07:46:16.669Z,13.50
2022-07-30T07:52:01.394Z,8.70
2022-07-30T07:57:26.537Z,11.10
2022-07-30T08:02:51.223Z,9.30
2022-07-30T08:08:19.022Z,6.60
2022-07-30T08:14:22.267Z,10.40
2022-07-30T08:20:19.614Z,7.90
2022-07-30T08:25:49.732Z,8.10
2022-07-30T08:31:14.712Z,6.90
2022-07-30T08:36:37.042Z,9.60
2022-07-30T08:42:02.204Z,7.00
2022-07-30T08:47:34.552Z,10.50
2022-07-30T08:53:07.418Z,8.30
2022-07-30T08:58:35.509Z,7.70
2022-07-30T09:04:07.072Z,7.70
2022-07-30T09:09:34.428Z,7.50
2022-07-30T09:15:15.818Z,7.50
2022-07-30T09:20:40.543Z,17.10
2022-07-30T09:26:03.603Z,11.00
2022-07-30T09:32:09.753Z,12.00
2022-07-30T09:38:06.709Z,14.10
2022-07-30T09:44:06.647Z,9.80
2022-07-30T09:49:37.510Z,8.80
2022-07-30T09:55:11.408Z,9.30
2022-07-30T10:00:37.311Z,10.10
2022-07-30T10:06:11.587Z,8.50
2022-07-30T10:11:40.031Z,8.00
2022-07-30T10:17:08.204Z,7.80
2022-07-30T10:22:35.130Z,10.30
2022-07-30T10:28:33.664Z,10.70
2022-07-30T10:34:05.860Z,9.60
2022-07-30T10:39:39.693Z,8.20
2022-07-30T10:45:19.947Z,11.30
2022-07-30T10:50:57.310Z,12.40
2022-07-30T10:56:26.168Z,9.80
2022-07-30T11:02:02.762Z,11.60
2022-07-30T11:07:30.127Z,10.70
2022-07-30T11:12:56.448Z,8.40
2022-07-30T11:18:18.937Z,10.90
2022-07-30T11:23:47.533Z,13.70
2022-07-30T11:29:36.035Z,13.40
2022-07-30T11:35:28.195Z,12.00
2022-07-30T11:41:12.328Z,15.40
2022-07-30T11:46:35.180Z,64.90
2022-07-30T11:52:02.349Z,13.60
2022-07-30T11:57:44.354Z,14.00
2022-07-30T12:03:17.877Z,15.30
2022-07-30T12:08:52.865Z,16.20
2022-07-30T12:14:17.334Z,15.10
2022-07-30T12:19:49.669Z,13.30
2022-07-30T12:25:15.987Z,17.20
2022-07-30T12:30:40.318Z,16.10
2022-07-30T12:36:05.880Z,17.40
2022-07-30T12:41:51.692Z,19.10
2022-07-30T12:47:25.340Z,19.90
2022-07-30T12:52:54.003Z,19.40
2022-07-30T12:58:16.452Z,23.30
2022-07-30T13:03:45.408Z,28.00
2022-07-30T13:09:17.010Z,36.10
2022-07-30T13:14:42.708Z,35.40
2022-07-30T13:20:11.191Z,34.40
2022-07-30T13:25:40.464Z,34.80
2022-07-30T13:31:08.497Z,34.30
2022-07-30T13:37:00.504Z,37.70
2022-07-30T13:42:45.945Z,36.00
2022-07-30T13:48:08.775Z,36.10
2022-07-30T13:53:34.162Z,35.10
2022-07-30T14:04:27.549Z,31.20
2022-07-30T14:10:17.795Z,31.60
2022-07-30T14:15:52.498Z,31.80
2022-07-30T14:22:17.241Z,29.80
2022-07-30T14:28:15.978Z,31.90
2022-07-30T14:33:42.136Z,29.20
2022-07-30T14:39:05.016Z,23.70
2022-07-30T14:44:49.404Z,23.40
2022-07-30T14:50:17.770Z,24.10
2022-07-30T14:55:59.727Z,17.30
2022-07-30T15:01:33.194Z,21.90
2022-07-30T15:07:00.944Z,24.00
2022-07-30T15:12:33.593Z,23.70
2022-07-30T15:18:06.791Z,25.00
2022-07-30T15:23:32.112Z,22.10
2022-07-30T15:28:57.843Z,28.10
2022-07-30T15:34:19.782Z,20.10
2022-07-30T15:39:48.942Z,19.10
2022-07-30T15:45:18.314Z,18.40
2022-07-30T15:50:43.760Z,24.70
2022-07-30T15:56:18.829Z,20.10
2022-07-30T16:01:44.889Z,19.30
2022-07-30T16:07:06.888Z,18.10
2022-07-30T16:12:32.216Z,17.90
2022-07-30T16:17:57.335Z,18.10
2022-07-30T16:23:21.463Z,17.00
2022-07-30T16:28:44.167Z,16.50
2022-07-30T16:34:26.619Z,12.20
2022-07-30T16:40:30.718Z,13.00
2022-07-30T16:45:55.451Z,12.90
2022-07-30T16:51:19.418Z,10.20
2022-07-30T16:56:46.855Z,10.80
2022-07-30T17:02:20.808Z,8.00
2022-07-30T17:07:48.376Z,9.00
2022-07-30T17:13:40.786Z,6.80
2022-07-30T17:19:09.123Z,12.90
2022-07-30T17:24:40.911Z,6.80
2022-07-30T17:30:06.031Z,7.50
2022-07-30T17:35:49.100Z,7.30
2022-07-30T17:41:13.738Z,7.30
2022-07-30T17:46:42.568Z,6.10
2022-07-30T17:52:12.299Z,7.00
2022-07-30T17:57:34.714Z,6.50
2022-07-30T18:03:08.801Z,11.40
2022-07-30T18:08:43.208Z,8.10
2022-07-30T18:14:21.851Z,5.90
2022-07-30T18:19:50.414Z,5.10
2022-07-30T18:25:19.312Z,7.70
2022-07-30T18:30:55.753Z,6.80
2022-07-30T18:36:20.457Z,5.20
2022-07-30T18:41:45.729Z,4.80
2022-07-30T18:47:36.820Z,6.50
2022-07-30T18:53:01.543Z,12.80
2022-07-30T18:58:40.496Z,8.90
2022-07-30T19:04:12.686Z,10.20
2022-07-30T19:09:40.513Z,9.60
2022-07-30T19:15:14.103Z,11.20
2022-07-30T19:20:43.513Z,11.70
2022-07-30T19:26:17.002Z,13.20
2022-07-30T19:32:02.639Z,15.10
2022-07-30T19:37:33.716Z,17.80
2022-07-30T19:43:10.282Z,21.70
2022-07-30T19:48:36.070Z,18.10
2022-07-30T19:54:03.376Z,18.10
2022-07-30T19:59:45.096Z,22.60
2022-07-30T20:05:19.477Z,22.90
2022-07-30T20:11:07.884Z,22.40
2022-07-30T20:16:44.563Z,18.80
2022-07-30T20:22:16.853Z,19.90
2022-07-30T20:27:40.726Z,18.10
2022-07-30T20:33:10.649Z,17.50
2022-07-30T20:38:47.302Z,16.80
2022-07-30T20:44:14.684Z,17.00
2022-07-30T20:49:54.412Z,16.00
2022-07-30T20:55:33.762Z,17.00
2022-07-30T21:01:21.362Z,16.40
2022-07-30T21:06:47.916Z,17.00
2022-07-30T21:12:32.677Z,16.80
2022-07-30T21:18:02.437Z,24.20
2022-07-30T21:24:17.744Z,20.80
2022-07-30T21:29:48.812Z,20.20
2022-07-30T21:35:16.497Z,20.10
2022-07-30T21:41:01.743Z,20.00
2022-07-30T21:46:27.115Z,23.30
2022-07-30T21:52:12.072Z,15.70
2022-07-30T21:57:43.335Z,14.20
2022-07-30T22:04:01.167Z,17.40
2022-07-30T22:09:18.142Z,12.60
2022-07-30T22:15:09.221Z,10.20
2022-07-30T22:20:35.680Z,12.50
2022-07-30T22:26:09.631Z,12.60
2022-07-30T22:31:40.801Z,12.50
2022-07-30T22:37:04.699Z,14.60
2022-07-30T22:42:49.670Z,14.80
2022-07-30T22:48:38.325Z,12.60
2022-07-30T22:54:29.152Z,10.00
2022-07-30T22:59:58.630Z,11.50
2022-07-30T23:05:26.402Z,9.90
2022-07-30T23:12:08.062Z,9.50
2022-07-30T23:17:38.702Z,9.70
2022-07-30T23:23:05.176Z,11.00
2022-07-30T23:28:35.403Z,8.70
2022-07-30T23:34:09.842Z,9.20
2022-07-30T23:39:37.458Z,9.00
2022-07-30T23:44:59.665Z,9.10
2022-07-30T23:50:24.989Z,7.80
2022-07-30T23:55:56.282Z,8.20
